createdAt,value
2022-08-09T00:01:05.488Z,9.45
2022-08-09T00:04:05.873Z,6.75
2022-08-09T00:06:24.031Z,5.57
2022-08-09T00:08:52.048Z,9.02
2022-08-09T00:11:24.963Z,4.10
2022-08-09T00:13:52.009Z,5.63
2022-08-09T00:16:26.546Z,6.00
2022-08-09T00:19:09.445Z,9.93
2022-08-09T00:21:38.203Z,8.30
2022-08-09T00:24:22.181Z,4.03
2022-08-09T00:26:50.619Z,4.72
2022-08-09T00:29:39.664Z,7.45
2022-08-09T00:32:03.841Z,5.18
2022-08-09T00:34:32.579Z,5.47
2022-08-09T00:37:00.629Z,5.75
2022-08-09T00:40:13.899Z,5.97
2022-08-09T00:44:16.636Z,5.57
2022-08-09T00:45:00.009Z,6.50
2022-08-09T00:47:33.133Z,6.43
2022-08-09T00:50:02.821Z,7.32
2022-08-09T00:52:31.113Z,7.75
2022-08-09T00:55:01.935Z,6.32
2022-08-09T00:57:33.783Z,6.43
2022-08-09T01:00:02.853Z,13.48
2022-08-09T01:02:32.728Z,6.80
2022-08-09T01:05:14.009Z,3.85
2022-08-09T01:08:19.456Z,5.88
2022-08-09T01:11:17.928Z,6.03
2022-08-09T01:13:58.567Z,8.77
2022-08-09T01:16:32.252Z,4.93
2022-08-09T01:19:04.945Z,5.50
2022-08-09T01:21:53.561Z,7.57
2022-08-09T01:24:39.478Z,6.07
2022-08-09T01:27:13.319Z,5.93
2022-08-09T01:29:56.433Z,5.47
2022-08-09T01:32:34.712Z,4.60
2022-08-09T01:35:28.407Z,6.90
2022-08-09T01:38:10.095Z,8.88
2022-08-09T01:40:44.988Z,8.15
2022-08-09T01:43:20.962Z,8.15
2022-08-09T01:48:29.590Z,11.38
2022-08-09T01:50:59.416Z,4.72
2022-08-09T01:53:28.870Z,4.18
2022-08-09T01:55:57.017Z,8.82
2022-08-09T01:58:25.632Z,6.55
2022-08-09T02:00:57.911Z,9.40
2022-08-09T02:03:25.457Z,5.57
2022-08-09T02:06:06.418Z,7.47
2022-08-09T02:08:57.546Z,9.65
2022-08-09T02:11:42.725Z,9.60
2022-08-09T02:14:15.799Z,7.07
2022-08-09T02:17:05.017Z,9.00
2022-08-09T02:19:43.099Z,5.72
2022-08-09T02:22:35.701Z,9.10
2022-08-09T02:25:07.068Z,9.50
2022-08-09T02:27:58.293Z,5.45
2022-08-09T02:30:26.556Z,8.53
2022-08-09T02:32:54.986Z,9.10
2022-08-09T02:36:02.099Z,5.03
2022-08-09T02:38:27.937Z,6.80
2022-08-09T02:41:01.810Z,7.70
2022-08-09T02:43:53.772Z,8.52
2022-08-09T02:46:18.845Z,10.57
2022-08-09T02:48:47.297Z,6.43
2022-08-09T02:51:20.206Z,5.78
2022-08-09T02:54:00.417Z,6.28
2022-08-09T02:56:30.297Z,5.90
2022-08-09T02:58:57.815Z,5.88
2022-08-09T03:01:29.386Z,6.53
2022-08-09T03:04:17.660Z,12.45
2022-08-09T03:06:48.782Z,5.15
2022-08-09T03:09:16.403Z,9.73
2022-08-09T03:12:09.897Z,7.68
2022-08-09T03:14:31.877Z,8.85
2022-08-09T03:17:01.843Z,6.10
2022-08-09T03:19:59.617Z,10.68
2022-08-09T03:22:24.932Z,7.80
2022-08-09T03:25:21.898Z,6.68
2022-08-09T03:27:52.244Z,7.72
2022-08-09T03:30:30.196Z,7.90
2022-08-09T03:33:05.798Z,8.88
2022-08-09T03:35:44.301Z,6.10
2022-08-09T03:38:30.661Z,7.50
2022-08-09T03:40:58.025Z,7.70
2022-08-09T03:43:25.243Z,7.10
2022-08-09T03:46:04.882Z,8.05
2022-08-09T03:48:51.777Z,12.07
2022-08-09T03:51:54.124Z,8.82
2022-08-09T03:56:41.266Z,5.65
2022-08-09T03:59:17.089Z,7.33
2022-08-09T04:01:50.477Z,10.13
2022-08-09T04:04:17.351Z,6.22
2022-08-09T04:06:49.211Z,7.68
2022-08-09T04:09:48.152Z,5.85
2022-08-09T04:12:11.992Z,5.78
2022-08-09T04:15:01.830Z,7.75
2022-08-09T04:20:07.099Z,9.35
2022-08-09T04:22:34.160Z,8.35
2022-08-09T04:25:03.066Z,10.35
2022-08-09T04:27:30.479Z,8.57
2022-08-09T04:29:59.664Z,8.70
2022-08-09T04:32:33.824Z,6.22
2022-08-09T04:35:04.639Z,8.13
2022-08-09T04:37:45.713Z,8.98
2022-08-09T04:40:28.654Z,7.00
2022-08-09T04:43:00.870Z,7.97
2022-08-09T04:45:30.580Z,10.27
2022-08-09T04:48:02.085Z,8.02
2022-08-09T04:50:35.125Z,15.18
2022-08-09T04:53:11.499Z,6.65
2022-08-09T04:55:42.168Z,11.95
2022-08-09T04:58:29.947Z,16.67
2022-08-09T05:01:00.585Z,15.93
2022-08-09T05:03:41.201Z,20.42
2022-08-09T05:06:26.809Z,23.15
2022-08-09T05:09:00.224Z,20.83
2022-08-09T05:11:30.463Z,22.98
2022-08-09T05:13:58.725Z,18.08
2022-08-09T05:16:31.456Z,30.10
2022-08-09T05:18:59.840Z,30.80
2022-08-09T05:21:30.046Z,20.00
2022-08-09T05:24:04.047Z,27.38
2022-08-09T05:26:36.714Z,31.85
2022-08-09T05:29:04.482Z,47.83
2022-08-09T05:31:44.207Z,37.70
2022-08-09T05:34:16.970Z,35.90
2022-08-09T05:36:44.233Z,32.85
2022-08-09T05:39:28.283Z,59.00
2022-08-09T05:41:55.310Z,37.00
2022-08-09T05:44:22.243Z,63.15
2022-08-09T05:46:55.631Z,40.72
2022-08-09T05:50:31.068Z,45.88
2022-08-09T05:52:09.960Z,28.77
2022-08-09T05:54:36.959Z,24.85
2022-08-09T05:57:06.383Z,6.72
2022-08-09T05:59:33.003Z,6.97
2022-08-09T06:01:59.989Z,10.48
2022-08-09T06:04:35.060Z,7.40
2022-08-09T06:07:02.212Z,10.73
2022-08-09T06:10:01.701Z,5.38
2022-08-09T06:12:15.102Z,6.85
2022-08-09T06:14:43.637Z,14.20
2022-08-09T06:17:10.361Z,8.88
2022-08-09T06:19:37.019Z,5.35
2022-08-09T06:22:04.801Z,9.15
2022-08-09T06:24:31.292Z,6.53
2022-08-09T06:26:58.072Z,7.53
2022-08-09T06:29:26.879Z,6.75
2022-08-09T06:32:08.515Z,7.43
2022-08-09T06:34:40.188Z,4.15
2022-08-09T06:37:10.120Z,6.38
2022-08-09T06:39:48.181Z,5.95
2022-08-09T06:42:24.955Z,6.30
2022-08-09T06:44:57.369Z,5.28
2022-08-09T06:47:24.122Z,5.75
2022-08-09T06:50:14.754Z,9.27
2022-08-09T06:52:45.860Z,10.48
2022-08-09T06:55:15.487Z,5.35
2022-08-09T06:58:02.570Z,6.45
2022-08-09T07:00:54.523Z,7.45
2022-08-09T07:03:16.383Z,5.78
2022-08-09T07:05:58.199Z,6.35
2022-08-09T07:08:30.609Z,6.30
2022-08-09T07:10:57.243Z,8.57
2022-08-09T07:13:29.564Z,6.43
2022-08-09T07:16:41.866Z,5.88
2022-08-09T07:18:44.098Z,6.35
2022-08-09T07:21:14.130Z,5.25
2022-08-09T07:23:56.541Z,7.18
2022-08-09T07:26:25.091Z,8.75
2022-08-09T07:29:09.070Z,9.57
2022-08-09T07:31:45.420Z,5.00
2022-08-09T07:34:20.325Z,7.55
2022-08-09T07:36:48.293Z,6.53
2022-08-09T07:39:20.396Z,7.50
2022-08-09T07:42:02.535Z,5.90
2022-08-09T07:44:32.964Z,6.63
2022-08-09T07:47:16.256Z,5.65
2022-08-09T07:50:04.473Z,6.10
2022-08-09T07:52:29.779Z,7.68
2022-08-09T07:54:56.690Z,8.52
2022-08-09T07:57:24.033Z,4.72
2022-08-09T08:00:02.766Z,5.57
2022-08-09T08:02:42.452Z,5.50
2022-08-09T08:05:19.023Z,7.00
2022-08-09T08:08:43.437Z,11.20
2022-08-09T08:10:34.417Z,5.90
2022-08-09T08:13:01.241Z,5.22
2022-08-09T08:15:30.782Z,7.22
2022-08-09T08:18:02.078Z,7.60
2022-08-09T08:20:32.768Z,6.15
2022-08-09T08:23:06.630Z,6.45
2022-08-09T08:25:48.275Z,5.07
2022-08-09T08:28:18.060Z,8.60
2022-08-09T08:30:52.920Z,11.38
2022-08-09T08:33:23.088Z,8.27
2022-08-09T08:35:59.531Z,4.80
2022-08-09T08:38:28.843Z,4.07
2022-08-09T08:40:56.773Z,4.75
2022-08-09T08:43:24.587Z,5.97
2022-08-09T08:46:04.036Z,6.82
2022-08-09T08:48:51.540Z,5.05
2022-08-09T08:51:21.033Z,7.28
2022-08-09T08:54:03.639Z,4.85
2022-08-09T08:56:35.287Z,5.60
2022-08-09T08:59:08.001Z,7.88
2022-08-09T09:01:52.291Z,4.32
2022-08-09T09:04:31.092Z,5.85
2022-08-09T09:07:08.398Z,9.25
2022-08-09T09:09:57.900Z,8.88
2022-08-09T09:12:29.132Z,5.22
2022-08-09T09:14:59.589Z,7.55
2022-08-09T09:17:41.109Z,13.13
2022-08-09T09:20:15.386Z,5.03
2022-08-09T09:23:01.637Z,5.32
2022-08-09T09:26:01.911Z,4.00
2022-08-09T09:29:02.905Z,6.68
2022-08-09T09:32:06.987Z,6.80
2022-08-09T09:34:18.037Z,4.50
2022-08-09T09:36:51.031Z,5.70
2022-08-09T09:39:23.333Z,4.70
2022-08-09T09:41:50.989Z,6.22
2022-08-09T09:44:35.322Z,3.08
2022-08-09T09:47:09.285Z,6.63
2022-08-09T09:50:07.035Z,4.60
2022-08-09T09:52:37.167Z,6.75
2022-08-09T09:55:28.307Z,8.25
2022-08-09T09:58:19.339Z,4.43
2022-08-09T10:00:55.482Z,5.93
2022-08-09T10:03:56.281Z,7.25
2022-08-09T10:09:11.903Z,13.75
2022-08-09T10:12:00.558Z,4.70
2022-08-09T10:14:35.144Z,5.65
2022-08-09T10:17:24.089Z,7.00
2022-08-09T10:19:59.940Z,4.65
2022-08-09T10:22:33.069Z,3.03
2022-08-09T10:25:03.449Z,5.38
2022-08-09T10:27:55.880Z,16.73
2022-08-09T10:34:07.655Z,4.82
2022-08-09T10:36:00.966Z,4.60
2022-08-09T10:38:54.390Z,2.33
2022-08-09T10:41:17.796Z,4.28
2022-08-09T10:44:01.183Z,4.35
2022-08-09T10:46:47.601Z,3.50
2022-08-09T10:49:49.996Z,2.35
2022-08-09T10:52:27.547Z,4.45
2022-08-09T10:54:55.267Z,6.05
2022-08-09T10:57:23.454Z,2.28
2022-08-09T10:59:58.012Z,4.38
2022-08-09T11:03:13.711Z,4.53
2022-08-09T11:05:30.223Z,2.63
2022-08-09T11:08:35.743Z,4.35
2022-08-09T11:11:10.487Z,7.50
2022-08-09T11:13:50.339Z,5.72
2022-08-09T11:16:35.714Z,2.92
2022-08-09T11:19:10.725Z,2.10
2022-08-09T11:21:57.417Z,4.22
2022-08-09T11:24:57.875Z,4.68
2022-08-09T11:28:04.332Z,4.88
2022-08-09T11:30:33.826Z,2.40
2022-08-09T11:33:09.718Z,4.40
2022-08-09T11:35:49.443Z,3.83
2022-08-09T11:38:34.262Z,2.10
2022-08-09T11:41:38.526Z,6.68
2022-08-09T11:44:08.208Z,10.48
2022-08-09T11:46:57.172Z,7.22
2022-08-09T11:50:55.104Z,2.78
2022-08-09T11:53:59.695Z,2.10
2022-08-09T11:55:52.397Z,3.85
2022-08-09T11:58:32.738Z,3.22
2022-08-09T12:01:08.898Z,6.03
2022-08-09T12:03:57.311Z,2.85
2022-08-09T12:06:32.668Z,2.03
2022-08-09T12:09:05.664Z,2.17
2022-08-09T12:14:28.777Z,4.75
2022-08-09T12:17:28.348Z,3.63
2022-08-09T12:19:59.768Z,3.53
2022-08-09T12:22:27.755Z,4.15
2022-08-09T12:25:16.541Z,4.13
2022-08-09T12:29:11.081Z,4.03
2022-08-09T12:30:36.912Z,6.47
2022-08-09T12:33:07.342Z,2.72
2022-08-09T12:35:40.960Z,6.72
2022-08-09T12:38:37.299Z,6.50
2022-08-09T12:41:05.430Z,4.35
2022-08-09T12:44:06.041Z,6.10
2022-08-09T12:46:22.774Z,1.55
2022-08-09T12:48:52.112Z,2.10
2022-08-09T12:51:52.702Z,9.10
2022-08-09T12:54:08.389Z,4.22
2022-08-09T12:56:50.953Z,2.65
2022-08-09T12:59:24.047Z,2.55
2022-08-09T13:01:59.591Z,5.18
2022-08-09T13:04:35.880Z,7.07
2022-08-09T13:07:16.201Z,6.25
2022-08-09T13:09:52.874Z,4.20
2022-08-09T13:12:26.708Z,8.98
2022-08-09T13:15:04.479Z,3.20
2022-08-09T13:18:02.703Z,2.38
2022-08-09T13:20:37.194Z,2.38
2022-08-09T13:24:15.905Z,8.98
2022-08-09T13:26:03.392Z,3.58
2022-08-09T13:28:34.326Z,4.72
2022-08-09T13:32:13.653Z,2.05
2022-08-09T13:33:54.808Z,5.38
2022-08-09T13:36:38.819Z,3.70
2022-08-09T13:41:52.251Z,2.10
2022-08-09T13:42:12.988Z,7.22
2022-08-09T13:44:41.991Z,1.88
2022-08-09T13:47:26.989Z,4.28
2022-08-09T13:50:08.703Z,2.55
2022-08-09T13:52:39.943Z,5.47
2022-08-09T13:55:13.478Z,4.32
2022-08-09T13:57:56.291Z,4.03
2022-08-09T14:00:27.261Z,3.10
2022-08-09T14:03:04.330Z,2.65
2022-08-09T14:05:58.212Z,2.38
2022-08-09T14:08:28.335Z,2.10
2022-08-09T14:10:55.261Z,2.42
2022-08-09T14:13:28.267Z,8.20
2022-08-09T14:16:16.174Z,5.22
2022-08-09T14:18:49.471Z,2.47
2022-08-09T14:21:22.299Z,3.10
2022-08-09T14:23:54.857Z,2.28
2022-08-09T14:26:31.491Z,2.10
2022-08-09T14:29:00.822Z,3.80
2022-08-09T14:31:36.092Z,3.38
2022-08-09T14:34:17.423Z,3.03
2022-08-09T14:36:45.045Z,4.53
2022-08-09T14:39:12.037Z,2.30
2022-08-09T14:41:40.174Z,3.72
2022-08-09T14:44:11.173Z,3.75
2022-08-09T14:47:04.824Z,3.40
2022-08-09T14:49:26.774Z,1.40
2022-08-09T14:51:59.045Z,3.25
2022-08-09T14:54:27.666Z,2.35
2022-08-09T14:56:57.597Z,4.30
2022-08-09T15:01:54.247Z,3.47
2022-08-09T15:04:23.328Z,5.72
2022-08-09T15:06:51.349Z,3.80
2022-08-09T15:10:03.602Z,2.08
2022-08-09T15:12:08.147Z,3.55
2022-08-09T15:14:38.774Z,2.78
2022-08-09T15:17:09.709Z,1.90
2022-08-09T15:19:59.620Z,2.00
2022-08-09T15:22:26.141Z,4.78
2022-08-09T15:24:53.812Z,3.70
2022-08-09T15:27:21.057Z,1.70
2022-08-09T15:30:56.876Z,1.70
2022-08-09T15:32:35.041Z,2.63
2022-08-09T15:35:01.831Z,2.60
2022-08-09T15:37:56.845Z,3.25
2022-08-09T15:40:33.676Z,3.03
2022-08-09T15:43:00.528Z,5.57
2022-08-09T15:45:29.705Z,1.90
2022-08-09T15:48:05.258Z,3.78
2022-08-09T15:50:39.238Z,5.15
2022-08-09T15:53:17.830Z,3.85
2022-08-09T15:56:21.052Z,3.70
2022-08-09T15:58:43.004Z,4.13
2022-08-09T16:01:09.498Z,2.85
2022-08-09T16:03:38.576Z,2.90
2022-08-09T16:06:27.299Z,4.30
2022-08-09T16:08:55.945Z,1.50
2022-08-09T16:11:22.415Z,2.78
2022-08-09T16:14:02.961Z,2.35
2022-08-09T16:16:34.778Z,2.42
2022-08-09T16:19:04.776Z,3.22
2022-08-09T16:21:35.095Z,3.72
2022-08-09T16:24:03.044Z,2.33
2022-08-09T16:26:34.594Z,3.10
2022-08-09T16:29:12.870Z,2.40
2022-08-09T16:32:19.577Z,3.88
2022-08-09T16:34:56.417Z,5.63
2022-08-09T16:37:53.982Z,3.88
2022-08-09T16:40:11.907Z,1.60
2022-08-09T16:42:45.563Z,2.33
2022-08-09T16:45:19.505Z,2.35
2022-08-09T16:48:39.804Z,2.05
2022-08-09T16:50:34.860Z,2.08
2022-08-09T16:53:05.751Z,4.10
2022-08-09T16:55:57.862Z,5.18
2022-08-09T16:58:19.473Z,3.15
2022-08-09T17:00:48.284Z,3.92
2022-08-09T17:03:21.443Z,1.83
2022-08-09T17:06:06.853Z,1.65
2022-08-09T17:08:45.794Z,3.08
2022-08-09T17:11:24.363Z,3.05
2022-08-09T17:14:01.639Z,2.22
2022-08-09T17:16:28.665Z,2.15
2022-08-09T17:18:55.252Z,3.75
2022-08-09T17:21:21.829Z,6.55
2022-08-09T17:24:27.017Z,6.63
2022-08-09T17:26:53.844Z,3.22
2022-08-09T17:29:21.020Z,2.20
2022-08-09T17:31:49.251Z,2.92
2022-08-09T17:35:02.026Z,3.70
2022-08-09T17:37:03.685Z,3.20
2022-08-09T17:39:52.066Z,6.10
2022-08-09T17:42:41.505Z,4.13
2022-08-09T17:45:06.590Z,3.50
2022-08-09T17:47:49.969Z,4.47
2022-08-09T17:50:36.326Z,3.20
2022-08-09T17:53:19.471Z,2.45
2022-08-09T17:55:51.262Z,2.28
2022-08-09T17:58:24.185Z,2.88
2022-08-09T18:00:54.911Z,2.33
2022-08-09T18:03:23.802Z,2.88
2022-08-09T18:05:53.250Z,1.90
2022-08-09T18:08:22.240Z,4.85
2022-08-09T18:11:00.639Z,4.07
2022-08-09T18:13:40.764Z,5.60
2022-08-09T18:16:14.712Z,1.88
2022-08-09T18:18:49.055Z,2.35
2022-08-09T18:21:21.399Z,3.78
2022-08-09T18:24:10.808Z,2.63
2022-08-09T18:26:38.396Z,4.93
2022-08-09T18:30:42.913Z,6.78
2022-08-09T18:32:03.371Z,5.13
2022-08-09T18:34:34.810Z,3.42
2022-08-09T18:37:02.423Z,4.40
2022-08-09T18:39:32.124Z,5.82
2022-08-09T18:42:05.283Z,4.88
2022-08-09T18:44:35.107Z,4.63
2022-08-09T18:47:07.365Z,4.25
2022-08-09T18:49:41.718Z,4.28
2022-08-09T18:52:13.185Z,4.10
2022-08-09T18:54:42.010Z,5.50
2022-08-09T18:57:16.396Z,4.25
2022-08-09T18:59:51.117Z,4.50
2022-08-09T19:02:20.068Z,3.50
2022-08-09T19:05:04.371Z,3.17
2022-08-09T19:07:34.131Z,6.20
2022-08-09T19:10:14.533Z,4.50
2022-08-09T19:12:45.502Z,4.70
2022-08-09T19:15:17.966Z,5.88
2022-08-09T19:17:54.529Z,3.45
2022-08-09T19:20:23.234Z,5.07
2022-08-09T19:22:54.704Z,5.30
2022-08-09T19:25:41.255Z,4.95
2022-08-09T19:28:13.188Z,2.60
2022-08-09T19:30:44.415Z,3.83
2022-08-09T19:33:19.489Z,4.18
2022-08-09T19:35:56.820Z,11.23
2022-08-09T19:38:25.509Z,6.75
2022-08-09T19:40:52.897Z,8.52
2022-08-09T19:43:57.821Z,10.43
2022-08-09T19:46:08.433Z,8.63
2022-08-09T19:49:01.477Z,9.88
2022-08-09T19:51:27.714Z,6.20
2022-08-09T19:54:01.167Z,9.73
2022-08-09T19:56:29.556Z,6.78
2022-08-09T19:59:39.815Z,5.43
2022-08-09T20:01:52.305Z,3.10
2022-08-09T20:04:37.342Z,3.10
2022-08-09T20:07:12.358Z,6.20
2022-08-09T20:09:47.651Z,5.80
2022-08-09T20:12:29.864Z,7.75
2022-08-09T20:15:02.078Z,4.53
2022-08-09T20:17:48.107Z,7.63
2022-08-09T20:20:15.680Z,8.38
2022-08-09T20:22:46.463Z,7.43
2022-08-09T20:25:13.121Z,5.40
2022-08-09T20:27:49.028Z,8.63
2022-08-09T20:30:17.895Z,2.97
2022-08-09T20:35:18.604Z,2.78
2022-08-09T20:38:20.584Z,4.10
2022-08-09T20:40:31.621Z,6.15
2022-08-09T20:43:00.421Z,4.40
2022-08-09T20:45:59.462Z,5.38
2022-08-09T20:48:31.933Z,10.50
2022-08-09T20:51:00.276Z,7.38
2022-08-09T20:53:36.178Z,4.25
2022-08-09T20:56:08.872Z,6.10
2022-08-09T20:58:35.847Z,4.28
2022-08-09T21:01:32.554Z,5.60
2022-08-09T21:05:48.342Z,3.63
2022-08-09T21:06:41.444Z,3.47
2022-08-09T21:09:13.607Z,7.45
2022-08-09T21:14:27.521Z,4.38
2022-08-09T21:16:57.884Z,2.88
2022-08-09T21:20:18.639Z,6.40
2022-08-09T21:22:36.009Z,3.60
2022-08-09T21:25:17.531Z,5.07
2022-08-09T21:27:52.157Z,5.63
2022-08-09T21:30:22.257Z,6.70
2022-08-09T21:32:49.297Z,3.13
2022-08-09T21:35:16.516Z,8.93
2022-08-09T21:37:58.641Z,5.32
2022-08-09T21:40:30.582Z,6.60
2022-08-09T21:43:00.006Z,5.70
2022-08-09T21:45:27.823Z,3.83
2022-08-09T21:47:54.321Z,4.97
2022-08-09T21:50:35.824Z,3.20
2022-08-09T21:53:06.942Z,8.15
2022-08-09T21:55:50.410Z,3.22
2022-08-09T21:58:16.894Z,7.13
2022-08-09T22:00:43.579Z,6.15
2022-08-09T22:03:25.313Z,3.85
2022-08-09T22:05:53.141Z,4.68
2022-08-09T22:08:24.744Z,2.97
2022-08-09T22:11:00.809Z,5.53
2022-08-09T22:13:42.217Z,5.20
2022-08-09T22:16:10.541Z,6.70
2022-08-09T22:18:52.947Z,4.78
2022-08-09T22:21:44.851Z,4.15
2022-08-09T22:24:17.216Z,9.27
2022-08-09T22:26:51.129Z,7.65
2022-08-09T22:29:19.305Z,6.00
2022-08-09T22:31:57.084Z,7.03
2022-08-09T22:34:28.060Z,10.27
2022-08-09T22:36:56.490Z,4.20
2022-08-09T22:39:55.544Z,5.78
2022-08-09T22:42:21.237Z,3.17
2022-08-09T22:45:00.278Z,5.07
2022-08-09T22:48:11.470Z,11.50
2022-08-09T22:50:23.144Z,9.23
2022-08-09T22:52:54.907Z,5.07
2022-08-09T22:55:29.638Z,8.68
2022-08-09T23:00:32.634Z,4.30
2022-08-09T23:02:59.457Z,5.50
2022-08-09T23:05:25.994Z,4.65
2022-08-09T23:08:21.910Z,3.70
2022-08-09T23:10:55.881Z,8.40
2022-08-09T23:13:22.296Z,7.65
2022-08-09T23:16:02.158Z,5.25
2022-08-09T23:18:30.569Z,5.05
2022-08-09T23:20:57.098Z,4.40
2022-08-09T23:23:23.565Z,7.03
2022-08-09T23:25:50.103Z,5.05
2022-08-09T23:28:16.591Z,5.68
2022-08-09T23:30:50.875Z,4.22
2022-08-09T23:33:19.372Z,4.43
2022-08-09T23:36:04.392Z,4.03
2022-08-09T23:38:32.216Z,4.78
2022-08-09T23:40:58.751Z,10.35
2022-08-09T23:43:25.188Z,8.20
2022-08-09T23:45:51.656Z,7.80
2022-08-09T23:48:19.481Z,4.05
2022-08-09T23:50:45.970Z,23.80
2022-08-09T23:53:12.604Z,6.22
2022-08-09T23:55:39.155Z,8.90
2022-08-09T23:58:24.274Z,8.25
